Latest Weather Observations for Shark Bay Airport

IDW60801

Issued at 1:43 pm WST Wednesday 21 November 2018 (issued every 10 minutes, with the page automatically refreshed every 10 minutes)

About weather observations | Map of weather stations | Latest weather observations for WA | Other Formats
Station Details ID: 006105 Name: SHARK BAY AIRPORT Lat: -25.89 Lon: 113.58 Height: 33.8 m
Data from the previous 72 hours. | See also: Recent months at Shark Bay Airport
Date/Time
WST
Temp
°C
App
Temp
°C
Dew
Point
°C
Rel
Hum
%
Delta-T
°C
Wind Press
QNH
hPa
Press
MSL
hPa
Rain since
9am
mm
Dir  Spd
km/h
Gust
km/h
Spd
kts
Gust
kts
21/01:30pm 34.5 28.7 -0.2 11 17.1 E 20 33 11 18 1006.8 1006.6 0.0
21/01:00pm 33.5 28.5 -1.0 11 16.7 E 15 30 8 16 1007.5 1007.3 0.0
21/12:30pm 33.4 26.7 -1.0 11 16.6 E 24 33 13 18 1008.0 1007.8 0.0
21/12:00pm 33.3 26.6 -1.1 11 16.5 E 24 35 13 19 1008.5 1008.3 0.0
21/11:30am 32.6 25.2 -0.5 12 16.0 E 28 39 15 21 1009.0 1008.8 0.0
21/11:00am 30.9 23.1 -0.7 13 15.0 E 30 41 16 22 1009.7 1009.5 0.0
21/10:30am 29.5 21.7 -0.8 14 14.2 E 30 43 16 23 1010.1 1009.9 0.0
21/10:00am 28.8 20.9 1.3 17 13.4 E 32 46 17 25 1010.2 1010.0 0.0
21/09:30am 26.8 18.7 1.3 19 12.2 E 33 48 18 26 1010.5 1010.3 0.0
21/09:00am 26.1 18.4 2.1 21 11.6 E 32 46 17 25 1010.8 1010.7 0.0
21/08:30am 25.7 18.2 3.6 24 10.9 ESE 32 44 17 24 1010.8 1010.7 0.0
21/08:00am 23.4 15.7 3.4 27 9.7 ESE 33 44 18 24 1010.7 1010.6 0.0
21/07:30am 23.2 15.9 4.7 30 9.2 ESE 32 44 17 24 1010.8 1010.7 0.0
21/07:00am 22.3 16.2 6.5 36 8.1 ESE 28 39 15 21 1010.6 1010.5 0.0
21/06:30am 19.0 15.2 8.9 52 5.3 ESE 19 26 10 14 1010.6 1010.5 0.0
21/06:00am 16.4 12.9 8.6 60 4.0 ESE 17 20 9 11 1010.5 1010.3 0.0
21/05:30am 15.7 11.9 7.7 59 4.0 SE 17 20 9 11 1010.1 1009.9 0.0
21/05:00am 15.8 12.0 7.6 58 4.1 SE 17 20 9 11 1010.0 1009.8 0.0
21/04:30am 15.9 12.3 8.4 61 3.8 SE 17 22 9 12 1009.8 1009.6 0.0
21/04:00am 16.2 12.8 9.2 63 3.6 SE 17 24 9 13 1009.9 1009.7 0.0
21/03:30am 16.3 12.6 9.5 64 3.5 SE 19 26 10 14 1010.0 1009.8 0.0
21/03:00am 16.6 12.9 10.2 66 3.4 SSE 20 26 11 14 1010.0 1009.8 0.0
21/02:30am 16.8 12.9 10.9 68 3.2 SSE 22 32 12 17 1010.1 1009.9 0.0
21/02:00am 17.0 12.8 11.1 68 3.2 SSE 24 32 13 17 1010.3 1010.1 0.0
21/01:30am 17.4 12.8 11.2 67 3.4 SSE 26 35 14 19 1010.5 1010.3 0.0
21/01:00am 17.8 13.4 11.6 67 3.4 SSE 26 39 14 21 1010.8 1010.7 0.0
21/12:30am 18.1 13.7 11.7 66 3.5 SSE 26 41 14 22 1011.0 1010.9 0.0
21/12:00am 18.4 13.7 11.9 66 3.6 SSE 28 39 15 21 1011.2 1011.1 0.0
 
Date/Time
WST
Temp
°C
App
Temp
°C
Dew
Point
°C
Rel
Hum
%
Delta-T
°C
Wind Press
QNH
hPa
Press
MSL
hPa
Rain since
9am
mm
Dir  Spd
km/h
Gust
km/h
Spd
kts
Gust
kts
20/11:30pm 18.7 14.2 12.5 67 3.5 SSE 28 39 15 21 1011.5 1011.4 0.0
20/11:00pm 18.8 14.1 13.2 70 3.2 S 30 39 16 21 1011.8 1011.7 0.0
20/10:30pm 18.9 13.9 13.5 71 3.1 S 32 44 17 24 1012.0 1011.9 0.0
20/10:18pm 19.1 13.6 13.7 71 3.1 S 35 54 19 29 1012.1 1012.0 0.0
20/10:00pm 19.0 13.9 13.8 72 3.0 S 33 48 18 26 1012.2 1012.1 0.0
20/09:30pm 19.1 14.6 13.7 71 3.1 S 30 44 16 24 1012.3 1012.2 0.0
20/09:00pm 19.0 13.8 13.4 70 3.2 S 33 48 18 26 1012.4 1012.3 0.0
20/08:30pm 19.1 13.6 13.5 70 3.2 S 35 50 19 27 1012.3 1012.2 0.0
20/08:00pm 19.3 13.8 13.7 70 3.2 S 35 48 19 26 1012.3 1012.2 0.0
20/07:41pm 19.3 14.1 13.5 69 3.3 S 33 52 18 28 1012.3 1012.2 0.0
20/07:30pm 19.4 13.3 13.1 67 3.6 S 37 52 20 28 1012.2 1012.1 0.0
20/07:12pm 19.6 14.2 12.8 65 3.8 S 33 52 18 28 1012.1 1012.0 0.0
20/07:00pm 19.7 13.8 12.5 63 4.0 S 35 50 19 27 1012.0 1011.9 0.0
20/06:30pm 20.7 15.3 12.7 60 4.5 S 33 44 18 24 1012.0 1011.9 0.0
20/06:00pm 21.3 15.1 12.7 58 4.9 SSW 37 56 20 30 1011.7 1011.6 0.0
20/05:53pm 21.6 15.4 12.5 56 5.2 SSW 37 56 20 30 1011.7 1011.6 0.0
20/05:30pm 22.3 15.5 12.0 52 5.8 S 39 54 21 29 1011.6 1011.5 0.0
20/05:00pm 23.3 15.7 10.4 44 7.1 SSW 41 52 22 28 1011.7 1011.6 0.0
20/04:30pm 23.7 16.2 10.7 44 7.2 SSW 41 52 22 28 1011.9 1011.8 0.0
20/04:00pm 24.4 17.6 10.7 42 7.6 SSW 37 52 20 28 1012.0 1011.9 0.0
20/03:30pm 25.6 19.1 10.2 38 8.6 S 35 48 19 26 1012.0 1011.9 0.0
20/03:00pm 26.5 20.1 9.4 34 9.4 SSW 33 44 18 24 1012.2 1012.1 0.0
20/02:30pm 27.0 20.4 8.4 31 10.1 SSW 33 44 18 24 1012.4 1012.3 0.0
20/02:00pm 27.1 20.1 7.0 28 10.7 SSW 33 48 18 26 1012.8 1012.7 0.0
20/01:34pm 27.6 20.9 8.0 29 10.6 SSW 33 50 18 27 1012.8 1012.7 0.0
20/01:30pm 27.5 20.3 5.7 25 11.3 SSW 33 46 18 25 1013.0 1012.9 0.0
20/01:07pm 28.2 21.7 4.5 22 12.1 S 28 61 15 33 1013.5 1013.4 0.0
20/01:00pm 27.4 22.2 5.6 25 11.3 S 22 37 12 20 1013.5 1013.4 0.0
20/12:30pm 28.2 21.4 -1.8 14 13.7 SE 24 39 13 21 1014.0 1013.9 0.0
20/12:00pm 28.4 21.0 -0.7 15 13.6 SE 28 46 15 25 1014.5 1014.4 0.0
20/11:43am 27.9 20.3 -2.0 14 13.6 SE 28 46 15 25 1014.8 1014.7 0.0
20/11:30am 27.7 20.2 -1.3 15 13.3 SE 28 44 15 24 1015.0 1014.9 0.0
20/11:29am 27.6 20.2 -0.5 16 13.1 SE 28 46 15 25 1015.0 1014.9 0.0
20/11:00am 26.3 19.1 0.9 19 12.0 SE 28 41 15 22 1015.5 1015.4 0.0
20/10:30am 25.7 19.2 4.8 26 10.6 SE 28 43 15 23 1015.9 1015.8 0.0
20/10:00am 24.1 18.0 5.0 29 9.6 SE 26 35 14 19 1016.3 1016.2 0.0
20/09:30am 23.4 17.5 5.8 32 8.9 SE 26 39 14 21 1016.6 1016.5 0.0
20/09:00am 22.1 16.4 6.7 37 7.9 SE 26 39 14 21 1016.5 1016.4 0.0
20/08:30am 20.4 13.9 6.7 41 6.9 SE 30 39 16 21 1016.5 1016.4 0.0
20/08:00am 19.3 12.9 7.1 45 6.2 SE 30 39 16 21 1016.5 1016.4 0.0
20/07:30am 17.6 10.8 7.1 50 5.3 SE 32 41 17 22 1016.4 1016.3 0.0
20/07:00am 17.0 10.2 6.8 51 5.0 SE 32 43 17 23 1016.2 1016.1 0.0
20/06:44am 16.7 10.0 7.4 54 4.7 SE 32 50 17 27 1016.1 1016.0 0.0
20/06:30am 16.4 10.5 7.6 56 4.4 SSE 28 44 15 24 1015.9 1015.8 0.0
20/06:00am 15.7 10.2 7.7 59 4.0 SSE 26 37 14 20 1015.7 1015.6 0.0
20/05:30am 15.4 9.5 7.7 60 3.8 SSE 28 41 15 22 1015.3 1015.2 0.0
20/05:00am 15.7 9.5 7.7 59 4.0 SSE 30 43 16 23 1015.2 1015.1 0.0
20/04:30am 15.9 9.7 7.7 58 4.1 SSE 30 43 16 23 1015.1 1015.0 0.0
20/04:00am 16.1 10.0 8.1 59 4.0 SSE 30 43 16 23 1014.8 1014.7 0.0
20/03:30am 16.3 9.8 8.0 58 4.2 SSE 32 50 17 27 1014.8 1014.7 0.0
20/03:27am 16.4 9.9 8.1 58 4.2 SSE 32 50 17 27 1014.8 1014.7 0.0
20/03:00am 16.6 10.1 9.1 61 3.9 SSE 33 50 18 27 1014.7 1014.6 0.0
20/02:41am 16.8 10.4 9.2 61 3.9 SSE 33 54 18 29 1014.8 1014.7 0.0
20/02:30am 16.7 10.2 9.1 61 3.9 SSE 33 48 18 26 1014.8 1014.7 0.0
20/02:05am 16.8 10.9 9.0 60 4.0 SSE 30 50 16 27 1014.8 1014.7 0.0
20/02:00am 16.8 10.9 9.0 60 4.0 SSE 30 44 16 24 1014.8 1014.7 0.0
20/01:30am 16.9 11.3 10.1 64 3.6 SSE 30 48 16 26 1015.0 1014.9 0.0
20/01:29am 16.8 11.2 10.2 65 3.5 SSE 30 48 16 26 1015.0 1014.9 0.0
20/01:00am 17.2 11.1 10.3 64 3.7 SSE 33 50 18 27 1015.2 1015.1 0.0
20/12:30am 17.5 11.5 10.9 65 3.6 SSE 33 50 18 27 1015.3 1015.2 0.0
20/12:00am 17.7 12.0 11.7 68 3.3 SSE 33 46 18 25 1015.7 1015.6 0.0
 
Date/Time
WST
Temp
°C
App
Temp
°C
Dew
Point
°C
Rel
Hum
%
Delta-T
°C
Wind Press
QNH
hPa
Press
MSL
hPa
Rain since
9am
mm
Dir  Spd
km/h
Gust
km/h
Spd
kts
Gust
kts
19/11:30pm 18.0 11.9 11.8 67 3.4 SSE 35 56 19 30 1016.0 1015.9 0.0
19/11:03pm 18.0 11.9 11.6 66 3.5 SSE 35 54 19 29 1016.0 1015.9 0.0
19/11:00pm 18.1 11.6 11.7 66 3.5 SSE 37 54 20 29 1016.0 1015.9 0.0
19/10:30pm 18.2 12.1 11.7 66 3.6 S 35 57 19 31 1016.2 1016.1 0.0
19/10:20pm 18.3 11.8 11.6 65 3.7 S 37 59 20 32 1016.2 1016.1 0.0
19/10:00pm 18.3 12.3 12.1 67 3.4 S 35 50 19 27 1016.4 1016.3 0.0
19/09:30pm 18.4 12.4 12.2 67 3.4 S 35 57 19 31 1016.2 1016.1 0.0
19/09:00pm 18.4 12.0 11.9 66 3.6 S 37 56 20 30 1016.1 1016.0 0.0
19/08:30pm 18.6 11.7 11.7 64 3.8 S 39 57 21 31 1015.8 1015.7 0.0
19/08:20pm 18.7 12.2 11.8 64 3.8 S 37 56 20 30 1015.7 1015.6 0.0
19/08:00pm 18.9 11.6 11.5 62 4.1 S 41 54 22 29 1015.5 1015.4 0.0
19/07:30pm 19.2 11.9 10.2 56 4.8 S 39 57 21 31 1015.0 1014.9 0.0
19/07:08pm 19.4 12.8 9.9 54 5.1 S 35 54 19 29 1014.8 1014.7 0.0
19/07:00pm 19.4 11.6 9.9 54 5.1 S 41 54 22 29 1014.7 1014.6 0.0
19/06:31pm 19.9 12.8 10.9 56 4.9 S 39 63 21 34 1014.4 1014.3 0.0
19/06:30pm 20.0 12.8 10.7 55 5.1 S 39 56 21 30 1014.4 1014.3 0.0
19/06:10pm 20.5 13.2 10.3 52 5.5 S 39 57 21 31 1014.3 1014.2 0.0
19/06:00pm 20.9 13.9 10.1 50 5.8 S 37 52 20 28 1014.3 1014.2 0.0
19/05:30pm 21.6 14.0 10.4 49 6.1 S 41 57 22 31 1014.4 1014.3 0.0
19/05:03pm 22.8 15.9 11.5 49 6.3 S 39 57 21 31 1014.4 1014.3 0.0
19/05:00pm 22.6 15.3 11.4 49 6.3 S 41 57 22 31 1014.3 1014.2 0.0
19/04:38pm 23.1 16.6 11.8 49 6.4 S 37 56 20 30 1014.3 1014.2 0.0
19/04:30pm 23.1 15.5 11.8 49 6.4 S 43 57 23 31 1014.3 1014.2 0.0
19/04:09pm 23.4 16.4 12.4 50 6.3 S 41 59 22 32 1014.4 1014.3 0.0
19/04:00pm 24.2 16.8 12.5 48 6.7 SSW 43 57 23 31 1014.3 1014.2 0.0
19/03:30pm 23.9 16.6 11.6 46 6.9 SSW 41 54 22 29 1014.3 1014.2 0.0
19/03:00pm 24.6 18.0 12.5 46 7.0 SSW 39 54 21 29 1014.7 1014.6 0.0
19/02:35pm 24.6 18.0 10.1 40 8.0 SSW 35 54 19 29 1014.8 1014.7 0.0
19/02:30pm 25.1 18.5 8.6 35 8.9 S 33 46 18 25 1014.9 1014.8 0.0
19/02:00pm 25.0 17.6 9.7 38 8.4 SSW 39 54 21 29 1015.0 1014.9 0.0
19/01:30pm 25.6 17.7 9.4 36 8.9 SSW 41 56 22 30 1015.0 1014.9 0.0
19/01:12pm 26.1 18.6 10.7 38 8.7 SSW 41 59 22 32 1015.2 1015.1 0.0
19/01:00pm 25.1 17.0 10.2 39 8.3 SSW 43 54 23 29 1015.4 1015.3 0.0
19/12:38pm 25.2 18.1 11.0 41 8.0 SSW 39 61 21 33 1015.6 1015.5 0.0
19/12:30pm 25.9 18.8 10.9 39 8.4 SSW 39 54 21 29 1015.7 1015.6 0.0
19/12:01pm 24.9 17.9 10.0 39 8.2 S 37 56 20 30 1015.9 1015.8 0.0
19/12:00pm 25.7 18.7 11.1 40 8.2 S 39 56 21 30 1016.0 1015.9 0.0
19/11:39am 26.1 20.3 11.5 40 8.3 S 33 52 18 28 1016.0 1015.9 0.0
19/11:30am 25.6 19.7 11.0 40 8.2 S 33 48 18 26 1016.1 1016.0 0.0
19/11:00am 25.8 19.9 10.4 38 8.6 S 32 52 17 28 1016.4 1016.3 0.0
19/10:38am 25.2 20.0 10.3 39 8.3 SSE 28 46 15 25 1016.5 1016.4 0.0
19/10:30am 24.5 18.7 9.3 38 8.3 SSE 30 46 16 25 1016.5 1016.4 0.0
19/10:23am 25.5 19.9 10.1 38 8.5 SSE 30 48 16 26 1016.6 1016.5 0.0
19/10:00am 24.9 18.5 10.8 41 7.9 SSE 35 48 19 26 1016.6 1016.5 0.0
19/09:30am 23.7 18.7 11.1 45 7.0 SSE 28 44 15 24 1016.6 1016.5 0.0
19/09:05am 24.1 19.1 12.1 47 6.8 SSE 30 48 16 26 1016.5 1016.4 0.0
19/09:00am 23.1 17.5 11.5 48 6.5 SSE 32 44 17 24 1016.5 1016.4 0.0
19/08:41am 23.3 17.9 12.9 52 6.0 SE 33 52 18 28 1016.4 1016.3 0.0
19/08:30am 22.5 17.3 12.7 54 5.6 SE 32 46 17 25 1016.3 1016.2 0.0
19/08:00am 21.7 17.3 12.8 57 5.1 SSE 28 44 15 24 1016.5 1016.4 0.0
19/07:30am 21.0 15.9 13.2 61 4.5 SE 32 44 17 24 1016.2 1016.1 0.0
19/07:00am 19.9 15.7 13.4 66 3.7 SE 28 41 15 22 1016.0 1015.9 0.0
19/06:30am 19.9 15.9 14.0 69 3.4 SSE 28 37 15 20 1015.8 1015.7 0.0
19/06:00am 18.9 16.7 14.4 75 2.6 SE 19 30 10 16 1015.5 1015.4 0.0
19/05:30am 18.6 16.7 14.1 75 2.6 SE 17 22 9 12 1015.1 1015.0 0.0
19/05:00am 18.8 16.4 13.9 73 2.8 SE 19 28 10 15 1014.9 1014.8 0.0
19/04:30am 19.3 16.8 14.1 72 3.0 SE 20 30 11 16 1014.5 1014.4 0.0
19/04:00am 19.6 17.3 14.0 70 3.2 SSE 19 24 10 13 1014.3 1014.2 0.0
19/03:30am 19.7 16.4 14.1 70 3.2 SSE 24 35 13 19 1014.2 1014.1 0.0
19/03:00am 19.7 15.7 14.1 70 3.2 SSE 28 39 15 21 1014.0 1013.9 0.0
19/02:30am 19.6 15.7 14.4 72 3.0 S 28 41 15 22 1013.8 1013.7 0.0
19/02:00am 19.4 15.4 14.2 72 3.0 S 28 43 15 23 1014.0 1013.9 0.0
19/01:30am 19.3 15.5 14.6 74 2.7 S 28 35 15 19 1013.9 1013.8 0.0
19/01:00am 19.3 15.5 14.6 74 2.7 S 28 44 15 24 1014.1 1014.0 0.0
19/12:30am 19.1 15.8 15.0 77 2.4 S 26 41 14 22 1014.3 1014.2 0.0
19/12:00am 19.1 15.8 15.0 77 2.4 S 26 37 14 20 1014.1 1014.0 0.0
 
Date/Time
WST
Temp
°C
App
Temp
°C
Dew
Point
°C
Rel
Hum
%
Delta-T
°C
Wind Press
QNH
hPa
Press
MSL
hPa
Rain since
9am
mm
Dir  Spd
km/h
Gust
km/h
Spd
kts
Gust
kts
18/11:30pm 19.3 15.3 15.2 77 2.4 S 30 43 16 23 1014.2 1014.1 0.0
18/11:00pm 19.4 16.2 15.3 77 2.4 S 26 37 14 20 1014.5 1014.4 0.0
18/10:30pm 19.4 16.1 15.1 76 2.5 S 26 37 14 20 1014.4 1014.3 0.0
18/10:00pm 19.5 15.9 15.2 76 2.5 S 28 39 15 21 1014.5 1014.4 0.0
18/09:30pm 19.7 16.2 15.4 76 2.5 S 28 41 15 22 1014.5 1014.4 0.0
18/09:00pm 19.7 16.0 15.1 75 2.7 SSW 28 39 15 21 1014.2 1014.1 0.0
18/08:30pm 19.9 15.3 14.7 72 3.0 SSW 32 43 17 23 1014.1 1014.0 0.0
18/08:00pm 20.0 16.4 15.2 74 2.8 S 28 39 15 21 1013.9 1013.8 0.0
18/07:30pm 20.5 16.1 15.1 71 3.2 S 32 41 17 22 1013.8 1013.7 0.0
18/07:00pm 21.2 18.0 15.3 69 3.5 SSW 26 37 14 20 1013.5 1013.4 0.0
18/06:30pm 22.0 18.0 15.1 65 4.1 SSW 30 39 16 21 1013.1 1013.0 0.0
18/06:00pm 23.3 18.8 14.8 59 5.1 SSW 32 41 17 22 1012.8 1012.7 0.0
18/05:30pm 24.0 19.3 14.4 55 5.7 SSW 32 44 17 24 1012.5 1012.4 0.0
18/05:00pm 24.6 20.0 14.7 54 5.9 SSW 32 46 17 25 1012.4 1012.3 0.0
18/04:30pm 25.4 20.8 14.5 51 6.5 SSW 32 44 17 24 1012.2 1012.1 0.0
18/04:00pm 26.2 21.6 14.6 48 7.0 SSW 32 44 17 24 1012.2 1012.1 0.0
18/03:30pm 26.3 22.1 15.7 52 6.5 SW 32 43 17 23 1012.3 1012.2 0.0
18/03:00pm 26.2 21.8 15.6 52 6.5 SW 33 44 18 24 1012.6 1012.5 0.0
18/02:30pm 26.3 21.9 15.7 52 6.5 SW 33 43 18 23 1012.8 1012.7 0.0
18/02:00pm 27.4 24.1 16.1 50 7.0 SW 28 39 15 21 1012.8 1012.7 0.0

Other Formats:

Comma delimited format used in spreadsheet applications
http://www.bom.gov.au/fwo/IDW60801/IDW60801.95402.axf

JavaScript Object Notation format (JSON) in row-major order
http://www.bom.gov.au/fwo/IDW60801/IDW60801.95402.json